Time;durP1;ratioP1;P1;durP2;ratioP2;P2;SDS_P1;SDS_P2;PMS_P1;PMS_P2;Temp;Humidity;BMP_temperature;BMP_pressure;BME280_temperature;BME280_humidity;BME280_pressure;Samples;Min_cycle;Max_cycle;Signal;HPM_P1;HPM_P2
2023/10/31 00:01:32;;;;;;;1.43;0.90;;;12.10;99.90;;;;;;5056705;28;20547;-39
2023/10/31 00:03:58;;;;;;;2.93;0.80;;;12.10;99.90;;;;;;5054707;28;20593;-39
2023/10/31 00:06:23;;;;;;;1.10;0.60;;;12.00;99.90;;;;;;5055475;28;20190;-40
2023/10/31 00:08:49;;;;;;;1.83;0.70;;;12.00;99.90;;;;;;5054953;28;20180;-38
2023/10/31 00:11:14;;;;;;;1.37;0.57;;;12.00;99.90;;;;;;5054842;28;20201;-39
2023/10/31 00:13:40;;;;;;;1.10;0.50;;;12.00;99.90;;;;;;5056381;28;20182;-38
2023/10/31 00:16:06;;;;;;;1.00;0.60;;;12.00;99.90;;;;;;5057256;28;20186;-40
2023/10/31 00:18:32;;;;;;;0.90;0.40;;;12.00;99.90;;;;;;5057998;28;20185;-41
2023/10/31 00:20:57;;;;;;;0.80;0.30;;;12.00;99.90;;;;;;5057781;28;20456;-38
2023/10/31 00:23:23;;;;;;;0.70;0.20;;;12.00;99.90;;;;;;5055745;28;20253;-41
2023/10/31 00:25:49;;;;;;;1.00;0.40;;;12.00;99.90;;;;;;5056662;28;20181;-38
2023/10/31 00:28:14;;;;;;;1.30;0.50;;;11.90;99.90;;;;;;5055223;28;20182;-39
2023/10/31 00:30:40;;;;;;;1.87;0.80;;;12.00;99.90;;;;;;5056322;28;20247;-40
2023/10/31 00:33:06;;;;;;;0.90;0.50;;;11.90;99.90;;;;;;5056220;28;20276;-38
2023/10/31 00:35:31;;;;;;;0.90;0.37;;;11.90;99.90;;;;;;5056024;28;20538;-38
2023/10/31 00:37:57;;;;;;;1.20;0.33;;;11.90;80.70;;;;;;5057546;28;20563;-42
2023/10/31 00:40:23;;;;;;;0.77;0.40;;;11.90;50.50;;;;;;5056912;28;20251;-38
2023/10/31 00:42:48;;;;;;;1.10;0.50;;;11.90;40.90;;;;;;5038821;28;20213;-38
2023/10/31 00:45:14;;;;;;;0.80;0.43;;;11.90;22.90;;;;;;5056082;28;20281;-38
2023/10/31 00:47:40;;;;;;;1.57;0.40;;;11.90;5.60;;;;;;5058654;28;20247;-38
2023/10/31 00:50:07;;;;;;;2.43;1.10;;;11.90;1.00;;;;;;5057389;28;20428;-38
2023/10/31 00:52:33;;;;;;;0.97;0.53;;;11.90;1.00;;;;;;5056107;28;20566;-41
2023/10/31 00:54:58;;;;;;;1.30;0.40;;;11.90;1.00;;;;;;5057148;28;20527;-38
2023/10/31 00:57:24;;;;;;;0.90;0.40;;;11.90;1.00;;;;;;5055853;28;20198;-39
2023/10/31 00:59:50;;;;;;;3.53;0.63;;;11.90;1.00;;;;;;5055636;28;20177;-39
2023/10/31 01:02:16;;;;;;;1.43;0.60;;;11.80;1.00;;;;;;5046964;28;20420;-40
2023/10/31 01:04:42;;;;;;;3.50;1.80;;;11.80;1.00;;;;;;5056395;28;20633;-41
2023/10/31 01:07:11;;;;;;;3.40;1.97;;;13.70;1.00;;;;;;5055059;28;20406;-42
2023/10/31 01:09:38;;;;;;;1.93;0.97;;;14.70;1.00;;;;;;5054666;28;20448;-38
2023/10/31 01:12:04;;;;;;;1.40;0.60;;;14.70;99.90;;;;;;5056696;28;20468;-40
2023/10/31 01:14:30;;;;;;;0.90;0.40;;;14.30;99.90;;;;;;5054183;28;20734;-38
2023/10/31 01:16:55;;;;;;;0.87;0.37;;;13.90;21.20;;;;;;5055233;28;20419;-38
2023/10/31 01:19:21;;;;;;;0.90;0.43;;;13.40;1.00;;;;;;5056913;28;20278;-38
2023/10/31 01:21:47;;;;;;;0.80;0.40;;;13.10;1.00;;;;;;5056720;28;20409;-37
2023/10/31 01:24:12;;;;;;;0.90;0.40;;;12.80;99.90;;;;;;5055999;28;20320;-38
2023/10/31 01:26:38;;;;;;;1.87;0.50;;;12.50;99.90;;;;;;5056228;28;20186;-39
2023/10/31 01:29:04;;;;;;;0.83;0.40;;;12.30;99.90;;;;;;5056177;28;20453;-38
2023/10/31 01:31:29;;;;;;;1.40;0.53;;;12.10;99.90;;;;;;5055345;28;20458;-39
2023/10/31 01:33:55;;;;;;;1.93;0.60;;;12.00;99.90;;;;;;5056801;28;20536;-41
2023/10/31 01:36:26;;;;;;;2.37;0.70;;;11.90;99.90;;;;;;5055959;28;20193;-38
2023/10/31 01:38:52;;;;;;;1.00;0.53;;;11.80;99.90;;;;;;5055578;28;20267;-38
2023/10/31 01:41:18;;;;;;;0.90;0.50;;;11.70;99.90;;;;;;5055206;28;20436;-38
2023/10/31 01:43:43;;;;;;;1.30;0.40;;;11.60;99.90;;;;;;5056320;28;20173;-38
2023/10/31 01:46:09;;;;;;;1.20;0.50;;;11.50;99.90;;;;;;5056399;28;20269;-41
2023/10/31 01:48:35;;;;;;;1.83;0.50;;;11.50;99.90;;;;;;5054852;28;20296;-37
2023/10/31 01:51:03;;;;;;;0.93;0.40;;;11.50;1.00;;;;;;5055147;28;20186;-38
2023/10/31 01:53:34;;;;;;;1.57;0.50;;;11.50;1.00;;;;;;5055941;28;20217;-38
2023/10/31 01:56:01;;;;;;;0.80;0.40;;;11.40;1.00;;;;;;5053508;28;20415;-42
2023/10/31 01:58:36;;;;;;;1.00;0.50;;;11.40;1.00;;;;;;5054754;28;20412;-38
2023/10/31 02:01:03;;;;;;;2.00;0.50;;;11.40;1.00;;;;;;5054793;28;20420;-41
2023/10/31 02:03:28;;;;;;;1.93;0.50;;;11.40;1.00;;;;;;5054013;28;20462;-39
2023/10/31 02:05:54;;;;;;;1.67;0.90;;;11.40;99.90;;;;;;5055249;28;20416;-38
2023/10/31 02:08:20;;;;;;;1.23;0.57;;;11.30;99.90;;;;;;5053917;28;20198;-39
2023/10/31 02:10:46;;;;;;;1.30;0.60;;;11.30;99.90;;;;;;5054994;28;20409;-39
2023/10/31 02:13:16;;;;;;;1.10;0.50;;;11.30;99.90;;;;;;5054899;28;20542;-37
2023/10/31 02:15:42;;;;;;;1.20;0.40;;;11.30;99.90;;;;;;5055813;28;20203;-38
2023/10/31 02:18:08;;;;;;;2.77;0.80;;;11.30;99.90;;;;;;5053943;28;20515;-41
2023/10/31 02:20:34;;;;;;;1.17;0.53;;;11.30;99.90;;;;;;5053770;28;20424;-39
2023/10/31 02:23:00;;;;;;;2.40;0.80;;;11.30;99.90;;;;;;5054353;28;20491;-39
2023/10/31 02:25:25;;;;;;;1.63;0.80;;;11.30;99.90;;;;;;5055087;28;20482;-38
2023/10/31 02:27:51;;;;;;;1.67;0.73;;;11.30;99.90;;;;;;5054638;28;20189;-39
2023/10/31 02:30:17;;;;;;;1.47;0.67;;;11.30;99.90;;;;;;5055041;28;20190;-38
2023/10/31 02:32:43;;;;;;;1.00;0.63;;;11.30;99.90;;;;;;5054213;28;20592;-38
2023/10/31 02:35:10;;;;;;;1.70;0.90;;;11.30;99.90;;;;;;5052508;28;20423;-39
2023/10/31 02:37:36;;;;;;;0.97;0.60;;;11.30;99.90;;;;;;5055579;28;20432;-38
2023/10/31 02:40:02;;;;;;;2.80;0.93;;;11.30;99.90;;;;;;5055586;28;20598;-38
2023/10/31 02:42:27;;;;;;;0.90;0.50;;;11.30;99.90;;;;;;5053124;28;20892;-40
2023/10/31 02:44:53;;;;;;;1.20;0.60;;;11.30;99.90;;;;;;5054538;28;20521;-37
2023/10/31 02:47:19;;;;;;;1.10;0.60;;;11.30;99.90;;;;;;5055281;28;20212;-39
2023/10/31 02:49:45;;;;;;;1.27;0.60;;;11.30;99.90;;;;;;5055405;28;20247;-38
2023/10/31 02:52:11;;;;;;;1.70;0.80;;;11.30;99.90;;;;;;5057555;28;20499;-41
2023/10/31 02:54:37;;;;;;;1.90;1.13;;;11.30;99.90;;;;;;5059166;28;20282;-38
2023/10/31 02:57:03;;;;;;;1.30;0.60;;;11.30;99.90;;;;;;5056041;28;20452;-39
2023/10/31 02:59:29;;;;;;;1.40;0.80;;;11.30;99.90;;;;;;5058262;28;20435;-40
2023/10/31 03:01:56;;;;;;;1.27;0.70;;;11.30;99.90;;;;;;5057689;28;20432;-40
2023/10/31 03:04:22;;;;;;;2.00;0.83;;;11.30;99.90;;;;;;5057517;28;20237;-40
2023/10/31 03:06:48;;;;;;;1.33;1.07;;;11.30;99.90;;;;;;5058920;28;20420;-37
2023/10/31 03:09:14;;;;;;;1.67;0.70;;;11.30;99.90;;;;;;5061098;28;20687;-40
2023/10/31 03:11:40;;;;;;;1.30;0.50;;;11.30;99.90;;;;;;5076904;28;20781;-39
2023/10/31 03:14:05;;;;;;;1.10;0.70;;;11.30;99.90;;;;;;5078629;28;20468;-38
2023/10/31 03:16:32;;;;;;;1.47;0.70;;;11.20;99.90;;;;;;5079305;28;20267;-40
2023/10/31 03:18:58;;;;;;;1.30;0.70;;;11.20;99.90;;;;;;5077894;28;20477;-37
2023/10/31 03:21:24;;;;;;;1.10;0.60;;;11.20;99.90;;;;;;5078934;28;20426;-38
2023/10/31 03:23:52;;;;;;;1.97;0.70;;;11.10;99.90;;;;;;5078585;28;20871;-39
2023/10/31 03:26:18;;;;;;;2.20;1.13;;;11.10;99.90;;;;;;5078068;28;20437;-38
2023/10/31 03:28:44;;;;;;;2.43;0.60;;;11.10;99.90;;;;;;5078544;28;20510;-37
2023/10/31 03:31:11;;;;;;;1.20;0.60;;;11.10;99.90;;;;;;5078751;28;20709;-39
2023/10/31 03:33:36;;;;;;;1.50;0.57;;;11.10;99.90;;;;;;5077667;28;20586;-41
2023/10/31 03:36:03;;;;;;;1.60;0.80;;;11.00;99.90;;;;;;5077445;28;20546;-38
2023/10/31 03:38:28;;;;;;;1.20;0.50;;;11.00;1.00;;;;;;5059486;28;20433;-38
2023/10/31 03:40:54;;;;;;;1.10;0.60;;;11.00;1.00;;;;;;5076866;28;20873;-36
2023/10/31 03:43:20;;;;;;;1.43;0.70;;;10.90;1.00;;;;;;5076179;28;20479;-37
2023/10/31 03:45:47;;;;;;;2.53;0.83;;;10.90;1.00;;;;;;5076360;28;20366;-39
2023/10/31 03:48:13;;;;;;;1.50;0.87;;;10.90;1.00;;;;;;5076530;28;20357;-38
2023/10/31 03:50:39;;;;;;;1.37;0.83;;;10.90;1.00;;;;;;5076999;28;20473;-38
2023/10/31 03:53:04;;;;;;;1.20;0.73;;;10.80;1.00;;;;;;5077340;28;20494;-37
2023/10/31 03:55:30;;;;;;;1.33;0.70;;;10.80;1.00;;;;;;5075941;28;20634;-38
2023/10/31 03:57:56;;;;;;;1.00;0.50;;;10.80;1.00;;;;;;5076426;28;20228;-38
2023/10/31 04:00:22;;;;;;;2.03;0.60;;;10.80;1.00;;;;;;5077094;28;20193;-37
2023/10/31 04:02:48;;;;;;;1.03;0.50;;;10.80;1.00;;;;;;5075778;28;20521;-38
2023/10/31 04:05:13;;;;;;;1.13;0.70;;;10.70;1.00;;;;;;5077331;28;20189;-40
2023/10/31 04:07:39;;;;;;;1.20;0.57;;;10.70;1.00;;;;;;5078381;28;20220;-40
2023/10/31 04:10:05;;;;;;;1.20;0.60;;;10.70;1.00;;;;;;5076947;28;20419;-37
2023/10/31 04:12:31;;;;;;;1.77;0.80;;;10.70;1.00;;;;;;5076708;28;20497;-41
2023/10/31 04:14:57;;;;;;;1.07;0.50;;;10.60;1.00;;;;;;5075490;28;20422;-38
2023/10/31 04:17:23;;;;;;;2.10;0.70;;;10.60;1.00;;;;;;5056083;28;20431;-38
2023/10/31 04:19:48;;;;;;;1.20;0.60;;;10.60;1.00;;;;;;5074445;28;20173;-39
2023/10/31 04:22:14;;;;;;;1.27;0.53;;;10.60;1.00;;;;;;5074429;28;20185;-37
2023/10/31 04:24:40;;;;;;;1.50;0.70;;;10.60;1.00;;;;;;5075174;28;20270;-38
2023/10/31 04:27:07;;;;;;;2.13;1.00;;;10.60;1.00;;;;;;5075168;28;20514;-38
2023/10/31 04:29:33;;;;;;;1.27;0.70;;;10.60;1.00;;;;;;5076653;28;20501;-37
2023/10/31 04:31:58;;;;;;;1.20;0.73;;;10.50;1.00;;;;;;5076740;28;20467;-38
2023/10/31 04:34:24;;;;;;;2.63;0.70;;;10.50;1.00;;;;;;5077238;28;20203;-40
2023/10/31 04:36:49;;;;;;;1.40;0.50;;;10.50;1.00;;;;;;5059777;28;20189;-38
2023/10/31 04:39:16;;;;;;;3.03;0.90;;;10.50;1.00;;;;;;5076466;28;20181;-39
2023/10/31 04:41:41;;;;;;;1.20;0.70;;;10.50;1.00;;;;;;5075907;28;20512;-38
2023/10/31 04:44:07;;;;;;;3.43;0.70;;;10.50;1.00;;;;;;5075943;28;20451;-37
2023/10/31 04:46:33;;;;;;;0.97;0.50;;;10.50;1.00;;;;;;5075785;28;20169;-39
2023/10/31 04:48:59;;;;;;;1.10;0.50;;;10.40;1.00;;;;;;5074208;28;20260;-37
2023/10/31 04:51:25;;;;;;;1.00;0.43;;;10.40;1.00;;;;;;5072604;28;20531;-39
2023/10/31 04:53:50;;;;;;;1.00;0.63;;;10.40;1.00;;;;;;5072828;28;20467;-38
2023/10/31 04:56:17;;;;;;;1.30;0.90;;;10.40;1.00;;;;;;5073408;28;20261;-38
2023/10/31 04:58:44;;;;;;;1.63;0.83;;;10.40;1.00;;;;;;5073100;28;20337;-40
2023/10/31 05:01:11;;;;;;;1.20;0.90;;;10.40;1.00;;;;;;5075488;28;20518;-37
2023/10/31 05:03:37;;;;;;;1.00;0.60;;;10.40;1.00;;;;;;5058852;28;20427;-38
2023/10/31 05:06:03;;;;;;;5.57;1.10;;;10.40;1.00;;;;;;5077078;28;20530;-38
2023/10/31 05:08:30;;;;;;;1.30;0.60;;;10.40;1.00;;;;;;5076838;28;20829;-38
2023/10/31 05:10:57;;;;;;;1.67;0.67;;;10.40;1.00;;;;;;5074780;28;20714;-37
2023/10/31 05:13:23;;;;;;;1.80;0.80;;;10.40;1.00;;;;;;5074982;28;20463;-37
2023/10/31 05:15:49;;;;;;;1.17;0.60;;;10.40;1.00;;;;;;5074052;28;20419;-37
2023/10/31 05:18:15;;;;;;;1.20;0.60;;;10.30;1.00;;;;;;5075858;28;20360;-39
2023/10/31 05:20:40;;;;;;;1.33;0.80;;;10.30;1.00;;;;;;5074488;28;20470;-37
2023/10/31 05:23:06;;;;;;;1.20;0.57;;;10.30;1.00;;;;;;5074880;28;20478;-36
2023/10/31 05:25:32;;;;;;;1.67;0.73;;;10.30;1.00;;;;;;5075207;28;20185;-38
2023/10/31 05:27:59;;;;;;;2.30;0.60;;;10.30;1.00;;;;;;5074686;28;20429;-37
2023/10/31 05:30:25;;;;;;;1.37;0.80;;;10.30;1.00;;;;;;5073924;28;20647;-37
2023/10/31 05:32:51;;;;;;;1.60;0.70;;;10.30;1.00;;;;;;5072502;28;20467;-40
2023/10/31 05:35:17;;;;;;;1.33;0.87;;;10.30;1.00;;;;;;5071711;28;20953;-39
2023/10/31 05:37:43;;;;;;;2.40;0.90;;;10.20;1.00;;;;;;5071554;28;20403;-39
2023/10/31 05:40:10;;;;;;;1.40;0.70;;;10.20;1.00;;;;;;5072467;28;20542;-38
2023/10/31 05:42:36;;;;;;;1.47;0.70;;;10.10;1.00;;;;;;5072705;28;20455;-40
2023/10/31 05:45:01;;;;;;;1.10;0.50;;;10.10;1.00;;;;;;5072661;28;20837;-37
2023/10/31 05:47:27;;;;;;;1.30;0.80;;;10.10;1.00;;;;;;5058806;28;20203;-39
2023/10/31 05:49:53;;;;;;;1.97;0.80;;;10.10;1.00;;;;;;5058129;28;20318;-38
2023/10/31 05:52:19;;;;;;;1.47;0.87;;;10.00;1.00;;;;;;5076928;28;20825;-37
2023/10/31 05:54:45;;;;;;;1.50;0.80;;;10.00;1.00;;;;;;5076770;28;20842;-39
2023/10/31 05:57:11;;;;;;;1.43;0.90;;;10.00;1.00;;;;;;5074220;28;20284;-37
2023/10/31 05:59:37;;;;;;;1.23;0.63;;;10.00;1.00;;;;;;5073567;28;20246;-39
2023/10/31 06:02:03;;;;;;;1.07;0.67;;;10.00;1.00;;;;;;5074778;28;20419;-39
2023/10/31 06:04:28;;;;;;;1.33;0.87;;;10.00;1.00;;;;;;5056618;28;20196;-38
2023/10/31 06:06:55;;;;;;;2.00;0.90;;;10.00;1.00;;;;;;5056888;28;20177;-38
2023/10/31 06:09:21;;;;;;;1.10;0.60;;;10.00;1.00;;;;;;5075824;28;20637;-37
2023/10/31 06:11:47;;;;;;;1.40;0.70;;;9.90;1.00;;;;;;5076286;28;20523;-39
2023/10/31 06:14:13;;;;;;;1.40;1.10;;;9.90;1.00;;;;;;5073555;28;20177;-38
2023/10/31 06:16:43;;;;;;;4.90;1.07;;;10.00;99.90;;;;;;5058173;28;20408;-38
2023/10/31 06:19:09;;;;;;;1.90;1.60;;;9.90;99.90;;;;;;5056408;28;20423;-37
2023/10/31 06:21:34;;;;;;;2.07;1.90;;;9.90;99.90;;;;;;5074790;28;20419;-39
2023/10/31 06:24:00;;;;;;;1.80;1.50;;;9.90;99.90;;;;;;5074396;28;20970;-41
2023/10/31 06:26:26;;;;;;;1.43;0.90;;;9.90;99.90;;;;;;5057511;28;20635;-38
2023/10/31 06:28:52;;;;;;;1.83;0.77;;;9.90;99.90;;;;;;5077300;28;20180;-38
2023/10/31 06:31:17;;;;;;;2.40;0.83;;;9.90;99.90;;;;;;5078901;28;20246;-38
2023/10/31 06:33:43;;;;;;;1.30;0.67;;;9.90;99.90;;;;;;5067669;28;20225;-40
2023/10/31 06:36:09;;;;;;;1.20;0.60;;;9.90;99.90;;;;;;5036549;28;20221;-41
2023/10/31 06:38:34;;;;;;;2.03;0.90;;;9.90;99.90;;;;;;5036606;28;20637;-38
2023/10/31 06:41:00;;;;;;;1.57;0.80;;;10.00;99.90;;;;;;5035629;28;20209;-38
2023/10/31 06:43:27;;;;;;;1.33;0.70;;;10.00;99.90;;;;;;5036885;28;20217;-40
2023/10/31 06:45:53;;;;;;;1.27;0.60;;;10.00;99.90;;;;;;5056057;28;20489;-39
2023/10/31 06:48:19;;;;;;;1.23;0.60;;;10.10;99.90;;;;;;5057175;28;20432;-41
2023/10/31 06:50:44;;;;;;;1.23;0.50;;;10.10;99.90;;;;;;5056350;28;20527;-38
2023/10/31 06:53:10;;;;;;;1.50;0.80;;;10.20;99.90;;;;;;5038708;28;20265;-37
2023/10/31 06:55:36;;;;;;;1.30;0.70;;;10.30;36.30;;;;;;5056902;28;20715;-38
2023/10/31 06:58:02;;;;;;;1.43;0.73;;;10.40;1.00;;;;;;5040464;28;20197;-38
2023/10/31 07:00:28;;;;;;;2.53;1.53;;;10.40;1.00;;;;;;5057584;28;20431;-39
2023/10/31 07:02:54;;;;;;;4.60;1.70;;;10.80;1.00;;;;;;5057080;28;20675;-37
2023/10/31 07:05:20;;;;;;;2.07;1.27;;;13.30;1.00;;;;;;5055655;28;20427;-39
2023/10/31 07:07:47;;;;;;;5.43;1.47;;;13.70;1.00;;;;;;5056259;28;20512;-38
2023/10/31 07:10:12;;;;;;;3.60;1.10;;;14.50;1.00;;;;;;5038090;28;20432;-37
2023/10/31 07:12:39;;;;;;;2.00;0.87;;;14.30;99.90;;;;;;5021941;28;20479;-38
2023/10/31 07:15:05;;;;;;;1.90;0.60;;;14.00;99.90;;;;;;5057305;28;20169;-37
2023/10/31 07:17:31;;;;;;;1.40;0.80;;;13.60;1.00;;;;;;5056487;28;20538;-38
2023/10/31 07:19:57;;;;;;;4.57;0.80;;;13.40;1.00;;;;;;5056357;28;20846;-37
2023/10/31 07:22:24;;;;;;;1.30;0.60;;;13.10;1.00;;;;;;5056147;28;20567;-37
2023/10/31 07:24:51;;;;;;;1.10;0.70;;;12.90;99.90;;;;;;5055112;28;20548;-40
2023/10/31 07:27:17;;;;;;;3.73;0.83;;;12.80;99.90;;;;;;5053854;28;20534;-38
2023/10/31 07:29:42;;;;;;;6.10;1.07;;;12.70;1.00;;;;;;5055563;28;20420;-40
2023/10/31 07:32:09;;;;;;;2.67;0.60;;;12.70;1.00;;;;;;5054676;28;20468;-38
2023/10/31 07:34:34;;;;;;;1.40;0.80;;;12.70;99.90;;;;;;5056035;28;20225;-38
2023/10/31 07:37:00;;;;;;;1.60;0.77;;;12.70;99.90;;;;;;5056763;28;20428;-39
2023/10/31 07:39:26;;;;;;;1.30;0.73;;;12.80;41.40;;;;;;5055463;28;20685;-38
2023/10/31 07:41:51;;;;;;;3.53;1.00;;;12.90;1.00;;;;;;5056687;28;20174;-36
2023/10/31 07:44:17;;;;;;;4.23;0.80;;;13.00;99.90;;;;;;5056702;28;20563;-37
2023/10/31 07:46:43;;;;;;;1.30;0.90;;;13.10;96.10;;;;;;5056634;28;20177;-39
2023/10/31 07:49:08;;;;;;;3.23;0.73;;;13.10;1.00;;;;;;5056813;28;20259;-38
2023/10/31 07:51:34;;;;;;;2.07;0.90;;;13.30;99.90;;;;;;5056532;28;20208;-39
2023/10/31 07:54:00;;;;;;;1.73;1.17;;;13.40;99.90;;;;;;5055605;28;20189;-38
2023/10/31 07:56:26;;;;;;;1.83;0.70;;;13.50;20.70;;;;;;5055513;28;20182;-39
2023/10/31 07:58:52;;;;;;;1.90;0.67;;;13.70;99.90;;;;;;5055819;28;20423;-38
2023/10/31 08:01:21;;;;;;;1.20;0.83;;;13.80;99.90;;;;;;5054855;28;20579;-38
2023/10/31 08:03:47;;;;;;;2.77;1.00;;;13.90;1.00;;;;;;5054283;28;20706;-37
2023/10/31 08:06:13;;;;;;;1.80;0.90;;;14.10;1.00;;;;;;5054394;28;20436;-38
2023/10/31 08:08:39;;;;;;;1.00;0.63;;;14.30;99.90;;;;;;5055172;28;20431;-38
2023/10/31 08:11:09;;;;;;;4.57;0.70;;;14.60;1.00;;;;;;5055919;28;20719;-37
2023/10/31 08:13:38;;;;;;;2.00;1.00;;;14.80;1.00;;;;;;5054348;28;20332;-38
2023/10/31 08:16:05;;;;;;;2.33;0.80;;;15.00;1.00;;;;;;5056256;28;20507;-37
2023/10/31 08:18:31;;;;;;;1.20;0.77;;;15.20;99.90;;;;;;5055123;28;20822;-38
2023/10/31 08:20:57;;;;;;;2.03;0.80;;;15.50;1.00;;;;;;5037490;28;20861;-36
2023/10/31 08:23:22;;;;;;;2.27;1.00;;;15.70;1.00;;;;;;5054673;28;20252;-38
2023/10/31 08:25:48;;;;;;;2.27;0.80;;;16.00;99.90;;;;;;5052981;28;20250;-38
2023/10/31 08:28:14;;;;;;;1.63;0.90;;;16.00;99.90;;;;;;5055336;28;20182;-38
2023/10/31 08:30:40;;;;;;;1.70;0.80;;;16.00;99.90;;;;;;5053654;28;20455;-40
2023/10/31 08:33:05;;;;;;;1.23;0.80;;;16.00;99.90;;;;;;5052374;28;20213;-45
2023/10/31 08:35:32;;;;;;;1.10;0.60;;;16.10;99.90;;;;;;5050315;28;20197;-40
2023/10/31 08:37:58;;;;;;;2.17;1.03;;;16.10;99.90;;;;;;5034683;28;20185;-40
2023/10/31 08:40:24;;;;;;;1.63;0.80;;;16.10;99.90;;;;;;5053413;28;20481;-39
2023/10/31 08:42:49;;;;;;;1.20;0.80;;;16.20;99.90;;;;;;5056100;28;20432;-39
2023/10/31 08:45:15;;;;;;;2.27;0.77;;;16.30;99.90;;;;;;5052606;28;20488;-36
2023/10/31 08:47:41;;;;;;;1.67;0.77;;;16.60;99.90;;;;;;5036211;28;20289;-41
2023/10/31 08:50:11;;;;;;;1.47;0.83;;;17.00;99.90;;;;;;5052381;28;20188;-38
2023/10/31 08:52:38;;;;;;;2.07;1.03;;;17.20;99.90;;;;;;5053642;28;20749;-37
2023/10/31 08:55:04;;;;;;;3.83;0.70;;;17.40;54.90;;;;;;5053912;28;20432;-37
2023/10/31 08:57:30;;;;;;;2.20;0.90;;;17.40;20.70;;;;;;5053985;28;20469;-38
2023/10/31 08:59:55;;;;;;;3.67;0.80;;;17.40;8.70;;;;;;5048664;28;20433;-39
2023/10/31 09:02:21;;;;;;;3.73;1.07;;;17.50;1.00;;;;;;5037382;28;20429;-39
2023/10/31 09:04:47;;;;;;;2.60;1.00;;;17.70;1.00;;;;;;5025897;28;20282;-39
2023/10/31 09:07:13;;;;;;;2.33;1.00;;;18.30;1.00;;;;;;5047690;28;20198;-37
2023/10/31 09:09:39;;;;;;;2.63;1.00;;;19.00;1.00;;;;;;5031341;28;20208;-38
2023/10/31 09:12:05;;;;;;;3.47;1.20;;;19.70;1.00;;;;;;5055038;28;20461;-40
2023/10/31 09:14:31;;;;;;;1.50;0.70;;;20.10;1.00;;;;;;5042878;28;20516;-39
2023/10/31 09:16:57;;;;;;;2.20;0.87;;;20.50;1.00;;;;;;5034947;28;20699;-39
2023/10/31 09:19:22;;;;;;;2.53;1.33;;;20.70;1.00;;;;;;5033204;28;20191;-39
2023/10/31 09:21:48;;;;;;;2.57;1.17;;;20.60;1.00;;;;;;5035830;28;20202;-38
2023/10/31 09:24:14;;;;;;;1.80;1.10;;;20.30;1.00;;;;;;5014894;28;20226;-39
2023/10/31 09:26:43;;;;;;;1.87;0.80;;;20.10;1.00;;;;;;5024386;28;20425;-40
2023/10/31 09:29:12;;;;;;;2.67;1.13;;;20.00;1.00;;;;;;5034337;28;20178;-42
2023/10/31 09:31:37;;;;;;;3.57;0.90;;;20.10;1.00;;;;;;5032386;28;20770;-40
2023/10/31 09:34:03;;;;;;;2.40;0.90;;;20.10;1.00;;;;;;5034284;28;20441;-38
2023/10/31 09:36:34;;;;;;;3.57;1.13;;;20.10;1.00;;;;;;5035515;28;20584;-39
2023/10/31 09:39:00;;;;;;;1.90;1.30;;;19.80;1.00;;;;;;5015126;28;20186;-37
2023/10/31 09:41:25;;;;;;;2.90;1.00;;;19.50;1.00;;;;;;5030721;28;20460;-37
2023/10/31 09:43:51;;;;;;;2.27;1.10;;;19.10;1.00;;;;;;5031926;28;20186;-38
2023/10/31 09:46:17;;;;;;;3.07;0.90;;;18.80;1.00;;;;;;5031981;28;20287;-41
2023/10/31 09:48:43;;;;;;;2.43;1.00;;;18.40;1.00;;;;;;5032231;28;20277;-38
2023/10/31 09:51:11;;;;;;;2.43;0.90;;;18.10;1.00;;;;;;5032490;28;20193;-37
2023/10/31 09:53:41;;;;;;;2.60;0.80;;;17.70;1.00;;;;;;5015186;28;20519;-39
2023/10/31 10:02:07;;;;;;;8.97;2.10;;;17.20;99.90;;;;;;5051050;28;20544;-38
2023/10/31 10:04:33;;;;;;;4.47;1.60;;;17.30;99.90;;;;;;5055341;28;20423;-39
2023/10/31 10:07:02;;;;;;;2.23;1.20;;;17.40;1.00;;;;;;5054683;28;20212;-37
2023/10/31 10:09:28;;;;;;;3.33;1.33;;;17.40;99.90;;;;;;5071368;28;20408;-39
2023/10/31 10:11:55;;;;;;;2.70;1.33;;;17.20;99.90;;;;;;5070022;28;20416;-41
2023/10/31 10:14:23;;;;;;;3.43;1.20;;;17.20;76.10;;;;;;5052974;28;20427;-38
2023/10/31 10:16:48;;;;;;;1.90;1.30;;;17.00;23.40;;;;;;5072428;28;20443;-38
2023/10/31 10:19:19;;;;;;;4.87;1.57;;;16.80;17.80;;;;;;5055377;28;20435;-38
2023/10/31 10:21:56;;;;;;;5.33;1.10;;;16.80;17.70;;;;;;5073251;28;20250;-39
2023/10/31 10:24:22;;;;;;;3.20;1.37;;;16.80;15.30;;;;;;5074238;28;20780;-39
2023/10/31 10:26:48;;;;;;;2.53;1.20;;;16.80;5.70;;;;;;5073352;28;20926;-38
2023/10/31 10:29:15;;;;;;;1.70;1.00;;;16.80;1.00;;;;;;5054771;28;20466;-41
2023/10/31 10:31:40;;;;;;;1.90;0.80;;;16.60;1.00;;;;;;5074047;28;20415;-41
2023/10/31 10:34:18;;;;;;;3.10;1.50;;;16.50;1.00;;;;;;5072333;28;20423;-41
2023/10/31 10:36:51;;;;;;;5.60;1.60;;;16.50;1.00;;;;;;5071680;28;20180;-39
2023/10/31 10:39:22;;;;;;;3.10;1.67;;;16.60;4.10;;;;;;5052622;28;20868;-40
2023/10/31 10:41:55;;;;;;;2.80;1.13;;;16.70;1.00;;;;;;5070467;28;20449;-41
2023/10/31 10:44:34;;;;;;;3.20;1.10;;;16.80;1.00;;;;;;5071379;28;20432;-39
2023/10/31 10:47:06;;;;;;;2.00;0.80;;;17.10;1.00;;;;;;5072464;28;20506;-40
2023/10/31 10:49:36;;;;;;;1.90;1.10;;;17.40;1.00;;;;;;5071348;28;20424;-39
2023/10/31 10:52:21;;;;;;;2.47;1.00;;;17.80;1.00;;;;;;5070725;28;20710;-39
2023/10/31 10:55:11;;;;;;;2.47;1.10;;;17.80;1.00;;;;;;5054541;28;20549;-39
2023/10/31 10:57:39;;;;;;;2.27;0.87;;;17.90;1.00;;;;;;5055279;28;20419;-41
2023/10/31 11:00:12;;;;;;;1.50;0.80;;;18.10;1.00;;;;;;5070860;28;20802;-39
2023/10/31 11:02:43;;;;;;;1.93;1.00;;;18.10;1.00;;;;;;5069601;28;20470;-39
2023/10/31 11:05:09;;;;;;;1.53;0.80;;;18.00;1.00;;;;;;5070350;28;20431;-39
2023/10/31 11:07:39;;;;;;;2.30;0.80;;;17.80;1.00;;;;;;5071679;28;20459;-38
2023/10/31 11:10:06;;;;;;;2.40;0.83;;;17.60;1.00;;;;;;5070919;28;20415;-41
2023/10/31 11:12:35;;;;;;;1.30;0.80;;;17.60;1.00;;;;;;5071325;28;20478;-39
2023/10/31 11:15:02;;;;;;;1.37;0.70;;;17.70;1.00;;;;;;5055981;28;20428;-39
2023/10/31 11:17:32;;;;;;;1.93;0.73;;;17.90;1.00;;;;;;5039556;28;20526;-43
2023/10/31 11:19:58;;;;;;;2.10;0.87;;;18.00;1.00;;;;;;5058163;28;20513;-44
2023/10/31 11:22:24;;;;;;;1.77;0.70;;;18.10;1.00;;;;;;5075991;28;20446;-40
2023/10/31 11:24:50;;;;;;;1.47;0.70;;;18.10;1.00;;;;;;5077636;28;20416;-43
2023/10/31 11:27:17;;;;;;;1.20;0.60;;;18.10;1.00;;;;;;5076595;28;21047;-40
2023/10/31 11:29:43;;;;;;;1.20;0.63;;;17.90;1.00;;;;;;5076061;28;20439;-39
2023/10/31 11:32:10;;;;;;;1.80;0.83;;;17.70;1.00;;;;;;5076008;28;20471;-39
2023/10/31 11:34:41;;;;;;;3.37;0.77;;;17.70;1.00;;;;;;5076245;28;20189;-40
2023/10/31 11:37:26;;;;;;;2.50;1.00;;;17.60;1.00;;;;;;5056093;28;20438;-41
2023/10/31 11:40:25;;;;;;;1.77;0.87;;;17.60;1.00;;;;;;5072392;28;20411;-43
2023/10/31 11:42:54;;;;;;;2.83;0.70;;;17.60;1.00;;;;;;5019896;28;20415;-40
2023/10/31 11:45:42;;;;;;;1.50;0.70;;;17.50;1.00;;;;;;5072680;28;20867;-42
2023/10/31 11:48:09;;;;;;;1.50;0.53;;;17.30;1.00;;;;;;5071339;28;20514;-38
2023/10/31 11:50:36;;;;;;;2.37;0.87;;;17.10;1.00;;;;;;5071465;28;20424;-39
2023/10/31 11:53:02;;;;;;;1.37;0.50;;;16.80;1.00;;;;;;5056841;28;20471;-39
2023/10/31 11:55:28;;;;;;;2.40;1.00;;;16.50;1.00;;;;;;5073754;28;20426;-38
2023/10/31 11:57:54;;;;;;;2.67;0.77;;;16.30;1.00;;;;;;5055177;28;20212;-39
2023/10/31 12:00:22;;;;;;;1.23;0.70;;;16.20;1.00;;;;;;5072420;28;20533;-39
2023/10/31 12:03:01;;;;;;;3.23;0.80;;;16.10;1.00;;;;;;5072874;28;20227;-41
2023/10/31 12:05:27;;;;;;;1.40;0.63;;;16.10;1.00;;;;;;5074682;28;20427;-40
2023/10/31 12:07:54;;;;;;;2.30;0.60;;;16.00;1.00;;;;;;5072041;28;20840;-40
2023/10/31 12:10:29;;;;;;;1.20;0.60;;;15.80;1.00;;;;;;5055675;28;20684;-40
2023/10/31 12:12:57;;;;;;;1.63;0.60;;;15.70;1.00;;;;;;5054946;28;20466;-41
2023/10/31 12:15:23;;;;;;;1.77;0.90;;;15.60;23.80;;;;;;5073500;28;20399;-37
2023/10/31 12:17:49;;;;;;;1.80;0.70;;;15.50;70.00;;;;;;5073716;28;20431;-41
2023/10/31 12:20:16;;;;;;;2.80;0.70;;;15.50;99.90;;;;;;5056566;28;20978;-41
2023/10/31 12:22:42;;;;;;;1.20;0.73;;;15.50;99.90;;;;;;5074314;28;20524;-40
2023/10/31 12:25:09;;;;;;;1.50;0.60;;;15.50;99.90;;;;;;5073888;28;20558;-41
2023/10/31 12:27:49;;;;;;;2.37;0.83;;;15.40;99.90;;;;;;5072749;28;20407;-39
2023/10/31 12:30:21;;;;;;;2.27;0.70;;;15.40;99.90;;;;;;5074125;28;20868;-42
2023/10/31 12:33:01;;;;;;;2.03;0.83;;;15.50;99.90;;;;;;5073050;28;20962;-40
2023/10/31 12:35:27;;;;;;;2.40;0.70;;;15.50;99.90;;;;;;5055620;28;20466;-39
2023/10/31 12:37:53;;;;;;;1.60;0.80;;;15.40;99.90;;;;;;5071205;28;21026;-41
2023/10/31 12:40:20;;;;;;;1.40;0.73;;;15.40;99.90;;;;;;5055469;28;20181;-40
2023/10/31 12:42:48;;;;;;;4.07;0.67;;;15.40;99.90;;;;;;5071546;28;20458;-39
2023/10/31 12:45:15;;;;;;;1.20;0.90;;;15.30;99.90;;;;;;5055329;28;20592;-38
2023/10/31 12:47:41;;;;;;;1.07;0.57;;;15.20;99.90;;;;;;5072024;28;20501;-40
2023/10/31 12:50:09;;;;;;;1.67;0.87;;;15.20;99.90;;;;;;5069148;28;20508;-38
2023/10/31 12:53:04;;;;;;;1.40;0.70;;;15.20;99.90;;;;;;5052319;28;20467;-39
2023/10/31 12:55:30;;;;;;;2.17;0.70;;;15.20;1.00;;;;;;5037997;28;20444;-39
2023/10/31 12:57:57;;;;;;;1.83;0.87;;;15.30;1.00;;;;;;5053525;28;20416;-42